English version
lugares datos climáticos artículos

datos de Mairena del Aljarafe, Sevilla, España
Año Mes Dia Mostrar

  Fecha       hora        Temp.ext.    Hum.ext.  Dir.Viento   Vel.Viento  Presion al NM   T.int. Prec.hoy 

   23-01-2021    06:30        - º(----)      -%         -          -  km/h    1022.0 hpa     21.1º    0.0 mm
   23-01-2021    06:25        - º(----)      -%         -          -  km/h    1022.2 hpa     21.3º    0.0 mm
   23-01-2021    06:20       9.7º(----)     93%      292 (W)      6.4 km/h    1022.2 hpa     21.2º    0.0 mm
   23-01-2021    06:15       9.7º(----)     93%      315(NW)      4.8 km/h    1022.2 hpa     20.9º    0.0 mm
   23-01-2021    06:10       9.8º(----)     92%      315(NW)      4.8 km/h    1022.2 hpa     20.9º    0.0 mm
   23-01-2021    06:05       9.8º(-4.8)     92%      315(NW)      1.6 km/h    1022.0 hpa     20.9º    0.0 mm
   23-01-2021    06:00       9.8º(-4.8)     92%      315(NW)      1.6 km/h    1022.2 hpa     20.9º    0.0 mm
   23-01-2021    05:55       9.8º(-4.9)     92%      315(NW)      1.6 km/h    1022.3 hpa     21.1º    0.0 mm
   23-01-2021    05:50       9.7º(-5.1)     92%      315(NW)      1.6 km/h    1022.2 hpa     21.1º    0.0 mm
   23-01-2021    05:45       9.7º(-5.1)     92%      292 (W)      3.2 km/h    1022.3 hpa     21.1º    0.0 mm
   23-01-2021    05:40       9.7º(-5.1)     92%      270 (W)      3.2 km/h    1022.2 hpa     21.1º    0.0 mm
   23-01-2021    05:35       9.7º(-5.1)     92%      270 (W)      3.2 km/h    1022.4 hpa     21.1º    0.0 mm
   23-01-2021    05:30       9.8º(-5.0)     92%      270 (W)      4.8 km/h    1022.3 hpa     21.1º    0.0 mm
   23-01-2021    05:25       9.8º(-5.0)     92%      270 (W)      3.2 km/h    1022.4 hpa     21.2º    0.0 mm
   23-01-2021    05:20       9.8º(-5.1)     92%      270 (W)      4.8 km/h    1022.3 hpa     21.2º    0.0 mm
   23-01-2021    05:15       9.8º(-5.1)     91%      270 (W)      3.2 km/h    1022.5 hpa     21.2º    0.0 mm
   23-01-2021    05:10       9.9º(-5.0)     91%      292 (W)      3.2 km/h    1022.5 hpa     21.2º    0.0 mm
   23-01-2021    05:05       9.9º(-5.0)     91%      292 (W)      3.2 km/h    1022.6 hpa     21.2º    0.0 mm
   23-01-2021    05:00       9.9º(-5.1)     91%      315(NW)      3.2 km/h    1022.6 hpa     21.2º    0.0 mm
   23-01-2021    04:55       9.9º(-5.0)     91%      315(NW)      1.6 km/h    1022.5 hpa     21.2º    0.0 mm
   23-01-2021    04:50      10.1º(-4.8)     91%      315(NW)      3.2 km/h    1022.5 hpa     21.2º    0.0 mm
   23-01-2021    04:45      10.1º(-4.7)     90%      315(NW)      3.2 km/h    1022.4 hpa     21.2º    0.0 mm
   23-01-2021    04:40      10.2º(-4.7)     90%      292 (W)      3.2 km/h    1022.5 hpa     21.3º    0.0 mm
   23-01-2021    04:35      10.2º(-4.6)     90%      292 (W)      3.2 km/h    1022.6 hpa     21.3º    0.0 mm
   23-01-2021    04:30      10.3º(-4.5)     90%      270 (W)      3.2 km/h    1022.6 hpa     21.3º    0.0 mm
   23-01-2021    04:25      10.4º(-4.4)     90%      270 (W)      4.8 km/h    1022.5 hpa     21.3º    0.0 mm
   23-01-2021    04:20      10.4º(-4.4)     90%      292 (W)      4.8 km/h    1022.5 hpa     21.3º    0.0 mm
   23-01-2021    04:15      10.6º(-4.2)     89%      270 (W)      6.4 km/h    1022.5 hpa     21.4º    0.0 mm
   23-01-2021    04:10      10.6º(-4.2)     89%      270 (W)      6.4 km/h    1022.6 hpa     21.4º    0.0 mm
   23-01-2021    04:05      10.7º(-4.1)     89%      270 (W)      6.4 km/h    1022.6 hpa     21.4º    0.0 mm
   23-01-2021    04:00      10.7º(-4.0)     89%      270 (W)      6.4 km/h    1022.7 hpa     21.4º    0.0 mm
   23-01-2021    03:55      10.7º(-4.0)     89%      270 (W)      8.0 km/h    1022.7 hpa     21.4º    0.0 mm
   23-01-2021    03:50      10.7º(-4.0)     89%      292 (W)      4.8 km/h    1022.7 hpa     21.5º    0.0 mm
   23-01-2021    03:45      10.7º(-4.0)     89%      292 (W)      4.8 km/h    1022.7 hpa     21.5º    0.0 mm
   23-01-2021    03:40      10.7º(-4.0)     89%      292 (W)      3.2 km/h    1022.8 hpa     21.5º    0.0 mm
   23-01-2021    03:35      10.8º(-3.9)     89%      270 (W)      3.2 km/h    1022.8 hpa     21.5º    0.0 mm
   23-01-2021    03:30      10.8º(-4.0)     89%      315(NW)      4.8 km/h    1022.9 hpa     21.6º    0.0 mm
   23-01-2021    03:25      10.8º(-4.0)     89%      315(NW)      6.4 km/h    1022.9 hpa     21.6º    0.0 mm
   23-01-2021    03:20      10.9º(-3.9)     89%      292 (W)      4.8 km/h    1023.0 hpa     21.6º    0.0 mm
   23-01-2021    03:15      10.9º(-4.1)     89%      315(NW)      6.4 km/h    1023.0 hpa     21.7º    0.0 mm
   23-01-2021    03:10      10.8º(-4.3)     89%      315(NW)      6.4 km/h    1023.0 hpa     21.7º    0.0 mm
   23-01-2021    03:05      10.9º(-4.3)     89%      292 (W)      4.8 km/h    1023.0 hpa     21.7º    0.0 mm
   23-01-2021    03:00      10.9º(-4.4)     89%      270 (W)      6.4 km/h    1022.9 hpa     21.7º    0.0 mm
   23-01-2021    02:55      10.9º(-4.4)     89%      270 (W)      4.8 km/h    1022.8 hpa     21.8º    0.0 mm
   23-01-2021    02:50      10.9º(-4.3)     88%      270 (W)      4.8 km/h    1022.7 hpa     21.8º    0.0 mm
   23-01-2021    02:45      11.1º(-4.1)     88%      292 (W)      6.4 km/h    1022.7 hpa     21.8º    0.0 mm
   23-01-2021    02:40      11.2º(-4.0)     88%      270 (W)      6.4 km/h    1022.5 hpa     21.9º    0.0 mm
   23-01-2021    02:35      11.2º(-4.0)     88%      270 (W)      6.4 km/h    1022.5 hpa     21.9º    0.0 mm
   23-01-2021    02:30      11.2º(-3.9)     88%      270 (W)      8.0 km/h    1022.5 hpa     21.9º    0.0 mm
   23-01-2021    02:25      11.3º(-3.8)     87%      270 (W)      6.4 km/h    1022.5 hpa     22.0º    0.0 mm
   23-01-2021    02:20      11.4º(-3.7)     87%      270 (W)      6.4 km/h    1022.5 hpa     22.0º    0.0 mm
   23-01-2021    02:15      11.4º(-3.6)     87%      292 (W)      6.4 km/h    1022.5 hpa     22.1º    0.0 mm
   23-01-2021    02:10      11.5º(-3.5)     87%      270 (W)      6.4 km/h    1022.5 hpa     22.1º    0.0 mm
   23-01-2021    02:05      11.5º(-3.5)     87%      270 (W)      6.4 km/h    1022.5 hpa     22.1º    0.0 mm
   23-01-2021    02:00      11.6º(-3.3)     86%      270 (W)      8.0 km/h    1022.6 hpa     22.2º    0.0 mm
   23-01-2021    01:55      11.6º(-3.3)     86%      270 (W)      8.0 km/h    1022.7 hpa     22.2º    0.0 mm
   23-01-2021    01:50      11.7º(-3.1)     86%      270 (W)      8.0 km/h    1022.7 hpa     22.3º    0.0 mm
   23-01-2021    01:45      11.7º(-3.1)     86%      270 (W)      8.0 km/h    1022.7 hpa     22.3º    0.0 mm
   23-01-2021    01:40      11.7º(-3.1)     85%      270 (W)      8.0 km/h    1022.7 hpa     22.4º    0.0 mm
   23-01-2021    01:35      11.8º(-2.9)     85%      270 (W)      8.0 km/h    1022.6 hpa     22.4º    0.0 mm
   23-01-2021    01:30      11.8º(-2.9)     85%      270 (W)      9.7 km/h    1022.6 hpa     22.4º    0.0 mm
   23-01-2021    01:25      11.8º(-2.9)     84%      270 (W)      8.0 km/h    1022.7 hpa     22.4º    0.0 mm
   23-01-2021    01:20      11.9º(-2.8)     84%      247(SW)      8.0 km/h    1022.7 hpa     22.4º    0.0 mm
   23-01-2021    01:15      11.9º(-2.8)     83%      270 (W)      8.0 km/h    1022.8 hpa     22.6º    0.0 mm
   23-01-2021    01:10      12.0º(-2.8)     83%      270 (W)      8.0 km/h    1022.9 hpa     22.6º    0.0 mm
   23-01-2021    01:05      11.9º(-2.9)     83%      247(SW)      8.0 km/h    1022.9 hpa     22.6º    0.0 mm
   23-01-2021    01:00      11.9º(-2.9)     83%      270 (W)      8.0 km/h    1023.0 hpa     22.7º    0.0 mm
   23-01-2021    00:55      11.9º(----)     83%      247(SW)      4.8 km/h    1022.9 hpa     22.8º    0.0 mm
   23-01-2021    00:50      11.9º(----)     83%      247(SW)      4.8 km/h    1022.8 hpa     22.8º    0.0 mm
   23-01-2021    00:45      12.0º(----)     82%      247(SW)      4.8 km/h    1022.9 hpa     22.8º    0.0 mm
   23-01-2021    00:40      12.1º(----)     82%      247(SW)      3.2 km/h    1023.0 hpa     22.8º    0.0 mm
   23-01-2021    00:35      12.1º(----)     82%      247(SW)      6.4 km/h    1023.1 hpa     22.8º    0.0 mm
   23-01-2021    00:30      12.1º(----)     82%      270 (W)      8.0 km/h    1023.2 hpa     22.9º    0.0 mm
   23-01-2021    00:25      12.1º(----)     82%      270 (W)      8.0 km/h    1023.2 hpa     22.9º    0.0 mm
   23-01-2021    00:20      12.1º(----)     81%      270 (W)      6.4 km/h    1023.1 hpa     22.9º    0.0 mm
   23-01-2021    00:15      12.1º(----)     81%      247(SW)      6.4 km/h    1023.0 hpa     22.9º    0.0 mm
   23-01-2021    00:10      12.2º(----)     81%      270 (W)      6.4 km/h    1022.9 hpa     23.1º    0.0 mm
   23-01-2021    00:05      12.2º(----)     81%      270 (W)      6.4 km/h    1022.8 hpa     23.1º    0.0 mm
   23-01-2021    00:00      12.2º(----)     81%      270 (W)      6.4 km/h    1022.8 hpa     23.1º    0.0 mm